createdAt,value
2022-10-06T00:02:18.306Z,22.50
2022-10-06T00:05:19.979Z,22.80
2022-10-06T00:08:21.332Z,22.70
2022-10-06T00:11:23.749Z,23.20
2022-10-06T00:14:25.395Z,22.60
2022-10-06T00:17:26.784Z,22.40
2022-10-06T00:20:31.634Z,22.30
2022-10-06T00:23:33.228Z,22.40
2022-10-06T00:26:35.298Z,22.90
2022-10-06T00:29:36.778Z,22.40
2022-10-06T00:32:41.731Z,22.40
2022-10-06T00:35:44.231Z,22.70
2022-10-06T00:38:45.652Z,22.10
2022-10-06T00:41:51.133Z,22.50
2022-10-06T00:44:53.106Z,22.40
2022-10-06T00:47:58.027Z,22.80
2022-10-06T00:50:59.757Z,22.50
2022-10-06T00:54:02.459Z,22.30
2022-10-06T00:57:05.553Z,22.30
2022-10-06T01:00:09.030Z,22.90
2022-10-06T01:03:14.953Z,22.40
2022-10-06T01:06:16.406Z,22.10
2022-10-06T01:09:18.187Z,22.60
2022-10-06T01:12:20.646Z,22.70
2022-10-06T01:15:22.678Z,22.40
2022-10-06T01:18:27.447Z,22.70
2022-10-06T01:21:40.949Z,22.30
2022-10-06T01:24:46.715Z,22.70
2022-10-06T01:27:52.972Z,22.60
2022-10-06T01:30:59.983Z,22.10
2022-10-06T01:34:01.594Z,22.60
2022-10-06T01:37:03.355Z,22.40
2022-10-06T01:40:06.256Z,22.50
2022-10-06T01:43:10.222Z,22.30
2022-10-06T01:46:12.152Z,22.60
2022-10-06T01:49:15.341Z,22.40
2022-10-06T01:52:16.722Z,22.20
2022-10-06T01:55:19.093Z,22.30
2022-10-06T01:58:20.544Z,22.60
2022-10-06T02:01:22.175Z,22.40
2022-10-06T02:04:23.822Z,22.60
2022-10-06T02:07:25.338Z,22.60
2022-10-06T02:10:27.181Z,22.40
2022-10-06T02:13:32.692Z,22.00
2022-10-06T02:16:35.242Z,22.40
2022-10-06T02:19:36.795Z,22.50
2022-10-06T02:22:41.574Z,22.10
2022-10-06T02:25:43.535Z,22.40
2022-10-06T02:28:45.889Z,22.40
2022-10-06T02:31:49.539Z,22.50
2022-10-06T02:34:56.259Z,22.10
2022-10-06T02:37:57.781Z,22.60
2022-10-06T02:41:01.143Z,22.30
2022-10-06T02:44:04.703Z,22.70
2022-10-06T02:47:11.714Z,22.50
2022-10-06T02:50:13.277Z,22.20
2022-10-06T02:53:14.817Z,22.20
2022-10-06T02:56:17.631Z,22.30
2022-10-06T02:59:20.280Z,22.00
2022-10-06T03:02:22.192Z,22.50
2022-10-06T03:05:23.901Z,22.20
2022-10-06T03:08:25.601Z,22.40
2022-10-06T03:11:30.384Z,23.00
2022-10-06T03:14:32.736Z,22.10
2022-10-06T03:17:34.199Z,22.30
2022-10-06T03:20:35.497Z,22.30
2022-10-06T03:23:38.018Z,22.20
2022-10-06T03:26:42.685Z,22.30
2022-10-06T03:29:45.251Z,22.50
2022-10-06T03:32:47.893Z,22.20
2022-10-06T03:35:58.826Z,22.40
2022-10-06T03:39:03.039Z,22.20
2022-10-06T03:42:06.426Z,22.40
2022-10-06T03:45:09.347Z,22.30
2022-10-06T03:48:10.771Z,22.50
2022-10-06T03:51:14.652Z,22.50
2022-10-06T03:54:16.203Z,22.10
2022-10-06T03:57:20.632Z,22.50
2022-10-06T04:00:22.367Z,22.60
2022-10-06T04:03:23.726Z,22.50
2022-10-06T04:06:29.846Z,22.10
2022-10-06T04:09:31.769Z,22.20
2022-10-06T04:12:35.339Z,22.40
2022-10-06T04:15:40.111Z,21.90
2022-10-06T04:18:43.354Z,22.60
2022-10-06T04:21:46.389Z,22.20
2022-10-06T04:24:50.766Z,22.20
2022-10-06T04:27:53.685Z,22.20
2022-10-06T04:30:56.406Z,22.10
2022-10-06T04:33:59.842Z,22.20
2022-10-06T04:37:03.279Z,22.30
2022-10-06T04:40:06.301Z,22.10
2022-10-06T04:43:08.891Z,22.30
2022-10-06T04:46:37.723Z,22.20
2022-10-06T04:49:32.505Z,22.40
2022-10-06T04:52:34.238Z,22.40
2022-10-06T04:55:35.863Z,22.20
2022-10-06T04:58:40.474Z,22.20
2022-10-06T05:01:42.600Z,22.00
2022-10-06T05:04:46.934Z,22.30
2022-10-06T05:07:50.462Z,22.10
2022-10-06T05:10:59.143Z,22.40
2022-10-06T05:14:01.525Z,22.00
2022-10-06T05:17:04.958Z,22.50
2022-10-06T05:20:10.128Z,22.10
2022-10-06T05:23:11.640Z,22.00
2022-10-06T05:26:17.459Z,21.90
2022-10-06T05:29:22.552Z,22.50
2022-10-06T05:32:24.102Z,22.40
2022-10-06T05:35:25.523Z,21.80
2022-10-06T05:38:31.474Z,22.30
2022-10-06T05:41:33.983Z,22.40
2022-10-06T05:44:39.257Z,21.90
2022-10-06T05:47:47.678Z,22.30
2022-10-06T05:50:58.031Z,22.10
2022-10-06T05:54:00.091Z,21.90
2022-10-06T05:57:02.533Z,22.00
2022-10-06T06:00:08.249Z,21.80
2022-10-06T06:03:14.607Z,22.30
2022-10-06T06:06:18.136Z,22.30
2022-10-06T06:09:21.403Z,22.30
2022-10-06T06:12:25.275Z,22.20
2022-10-06T06:15:57.120Z,22.40
2022-10-06T06:18:59.899Z,22.00
2022-10-06T06:22:01.933Z,22.20
2022-10-06T06:25:06.363Z,21.90
2022-10-06T06:28:08.789Z,21.70
2022-10-06T06:31:19.063Z,21.90
2022-10-06T06:34:22.558Z,22.00
2022-10-06T06:37:24.138Z,22.00
2022-10-06T06:40:26.299Z,22.30
2022-10-06T06:43:28.680Z,22.30
2022-10-06T06:46:49.419Z,21.90
2022-10-06T06:49:53.374Z,22.30
2022-10-06T06:52:56.065Z,22.10
2022-10-06T06:55:58.105Z,22.50
2022-10-06T06:59:00.858Z,22.20
2022-10-06T07:02:03.115Z,22.20
2022-10-06T07:05:07.460Z,22.40
2022-10-06T07:08:09.512Z,22.10
2022-10-06T07:11:15.593Z,22.20
2022-10-06T07:14:17.984Z,22.40
2022-10-06T07:17:37.180Z,22.50
2022-10-06T07:20:53.547Z,22.40
2022-10-06T07:24:07.148Z,22.60
2022-10-06T07:27:12.464Z,22.40
2022-10-06T07:30:18.536Z,22.50
2022-10-06T07:33:22.871Z,22.90
2022-10-06T07:36:26.364Z,22.50
2022-10-06T07:39:28.606Z,22.60
2022-10-06T07:42:30.408Z,22.50
2022-10-06T07:45:40.652Z,22.50
2022-10-06T07:48:48.845Z,22.40
2022-10-06T07:51:52.869Z,22.90
2022-10-06T07:54:55.199Z,22.90
2022-10-06T07:58:10.877Z,22.50
2022-10-06T08:01:14.286Z,22.90
2022-10-06T08:04:16.402Z,23.00
2022-10-06T08:07:21.056Z,22.80
2022-10-06T08:10:22.549Z,22.80
2022-10-06T08:13:26.234Z,22.90
2022-10-06T08:16:29.392Z,23.00
2022-10-06T08:19:32.134Z,23.20
2022-10-06T08:22:35.273Z,22.90
2022-10-06T08:25:41.842Z,23.40
2022-10-06T08:28:44.476Z,23.00
2022-10-06T08:31:46.381Z,22.80
2022-10-06T08:34:49.336Z,22.90
2022-10-06T08:37:52.525Z,23.10
2022-10-06T08:40:54.079Z,23.20
2022-10-06T08:44:01.476Z,23.10
2022-10-06T08:47:10.988Z,23.20
2022-10-06T08:50:13.346Z,23.20
2022-10-06T08:53:25.016Z,23.00
2022-10-06T08:56:33.121Z,23.00
2022-10-06T08:59:35.619Z,23.30
2022-10-06T09:02:41.115Z,23.10
2022-10-06T09:05:43.899Z,23.30
2022-10-06T09:08:52.380Z,23.30
2022-10-06T09:12:02.423Z,23.20
2022-10-06T09:15:23.179Z,24.00
2022-10-06T09:18:49.278Z,23.30
2022-10-06T09:21:53.946Z,23.70
2022-10-06T09:24:58.788Z,23.40
2022-10-06T09:28:02.548Z,23.30
2022-10-06T09:31:18.104Z,23.40
2022-10-06T09:34:27.580Z,23.10
2022-10-06T09:37:53.589Z,23.30
2022-10-06T09:40:55.463Z,23.70
2022-10-06T09:43:59.497Z,23.50
2022-10-06T09:47:01.206Z,23.50
2022-10-06T09:50:15.121Z,23.40
2022-10-06T09:53:17.719Z,23.20
2022-10-06T09:56:19.576Z,23.50
2022-10-06T09:59:26.371Z,23.30
2022-10-06T10:02:35.995Z,23.30
2022-10-06T10:05:45.482Z,23.50
2022-10-06T10:08:47.595Z,23.50
2022-10-06T10:12:15.089Z,23.40
2022-10-06T10:15:26.408Z,23.30
2022-10-06T10:18:31.251Z,23.40
2022-10-06T10:21:34.680Z,24.00
2022-10-06T10:24:50.176Z,23.50
2022-10-06T10:27:58.423Z,23.50
2022-10-06T10:31:05.909Z,23.50
2022-10-06T10:34:23.985Z,23.50
2022-10-06T10:37:35.397Z,23.40
2022-10-06T10:40:43.148Z,23.60
2022-10-06T10:43:49.129Z,23.30
2022-10-06T10:46:55.421Z,23.50
2022-10-06T10:50:04.352Z,23.60
2022-10-06T10:53:10.964Z,23.50
2022-10-06T10:56:15.684Z,23.50
2022-10-06T10:59:22.615Z,23.40
2022-10-06T11:02:24.329Z,23.50
2022-10-06T11:05:39.337Z,23.40
2022-10-06T11:08:49.280Z,23.30
2022-10-06T11:12:02.574Z,23.50
2022-10-06T11:15:11.552Z,23.40
2022-10-06T11:18:27.138Z,23.30
2022-10-06T11:21:36.015Z,23.60
2022-10-06T11:24:44.776Z,23.20
2022-10-06T11:27:58.431Z,23.20
2022-10-06T11:31:09.556Z,23.60
2022-10-06T11:34:11.978Z,23.60
2022-10-06T11:37:24.141Z,23.60
2022-10-06T11:40:36.367Z,23.70
2022-10-06T11:43:46.114Z,23.60
2022-10-06T11:46:53.048Z,23.40
2022-10-06T11:49:55.439Z,23.70
2022-10-06T11:52:57.317Z,23.50
2022-10-06T11:56:28.050Z,23.60
2022-10-06T11:59:30.831Z,23.50
2022-10-06T12:02:37.391Z,23.50
2022-10-06T12:09:01.126Z,23.80
2022-10-06T12:12:37.666Z,23.80
2022-10-06T12:17:08.454Z,23.60
2022-10-06T12:19:26.701Z,23.80
2022-10-06T12:22:31.471Z,23.40
2022-10-06T12:25:39.097Z,23.50
2022-10-06T12:28:48.192Z,23.90
2022-10-06T12:32:00.124Z,23.70
2022-10-06T12:35:02.832Z,23.80
2022-10-06T12:38:05.731Z,23.90
2022-10-06T12:41:10.119Z,23.80
2022-10-06T12:44:25.709Z,23.90
2022-10-06T12:47:33.920Z,23.70
2022-10-06T12:50:36.843Z,23.60
2022-10-06T12:53:49.967Z,24.10
2022-10-06T12:57:00.165Z,24.10
2022-10-06T13:00:01.748Z,24.10
2022-10-06T13:03:08.736Z,24.10
2022-10-06T13:06:11.072Z,24.00
2022-10-06T13:09:14.198Z,24.20
2022-10-06T13:12:23.094Z,23.80
2022-10-06T13:15:29.381Z,24.20
2022-10-06T13:18:32.112Z,24.20
2022-10-06T13:21:34.134Z,24.10
2022-10-06T13:24:35.715Z,24.20
2022-10-06T13:27:37.440Z,24.10
2022-10-06T13:30:39.134Z,24.10
2022-10-06T13:33:43.182Z,24.30
2022-10-06T13:36:48.308Z,24.20
2022-10-06T13:39:49.884Z,24.10
2022-10-06T13:52:34.557Z,24.10
2022-10-06T13:55:36.047Z,24.20
2022-10-06T13:58:37.662Z,24.20
2022-10-06T14:01:39.201Z,24.20
2022-10-06T14:04:40.782Z,24.00
2022-10-06T14:07:43.883Z,24.40
2022-10-06T14:10:48.013Z,23.80
2022-10-06T14:13:54.285Z,24.10
2022-10-06T14:16:56.357Z,24.10
2022-10-06T14:19:58.269Z,24.20
2022-10-06T14:23:03.641Z,24.20
2022-10-06T14:26:06.560Z,24.20
2022-10-06T14:29:08.324Z,24.20
2022-10-06T14:32:13.146Z,24.20
2022-10-06T14:35:14.565Z,24.40
2022-10-06T14:38:17.929Z,24.20
2022-10-06T14:41:24.240Z,24.00
2022-10-06T14:44:26.220Z,24.20
2022-10-06T14:47:29.654Z,24.20
2022-10-06T14:50:31.244Z,24.30
2022-10-06T14:53:33.882Z,24.10
2022-10-06T14:56:37.032Z,24.20
2022-10-06T14:59:38.593Z,24.10
2022-10-06T15:02:41.321Z,24.10
2022-10-06T15:05:57.516Z,24.30
2022-10-06T15:08:59.566Z,24.10
2022-10-06T15:12:01.618Z,24.20
2022-10-06T15:15:06.998Z,24.70
2022-10-06T15:18:08.471Z,24.10
2022-10-06T15:21:12.194Z,24.10
2022-10-06T15:24:16.259Z,24.30
2022-10-06T15:27:32.435Z,24.30
2022-10-06T15:30:38.742Z,24.30
2022-10-06T15:33:40.198Z,24.40
2022-10-06T15:36:43.046Z,24.30
2022-10-06T15:39:48.421Z,23.90
2022-10-06T15:42:50.117Z,24.30
2022-10-06T15:45:54.512Z,24.30
2022-10-06T15:49:00.454Z,24.20
2022-10-06T15:52:03.639Z,24.20
2022-10-06T15:55:06.523Z,24.00
2022-10-06T15:58:07.978Z,24.20
2022-10-06T16:01:39.748Z,24.20
2022-10-06T16:05:14.332Z,24.30
2022-10-06T16:08:15.797Z,24.40
2022-10-06T16:11:18.102Z,24.00
2022-10-06T16:14:20.144Z,24.20
2022-10-06T16:17:21.563Z,24.20
2022-10-06T16:20:22.995Z,24.20
2022-10-06T16:23:24.447Z,24.00
2022-10-06T16:26:27.570Z,24.20
2022-10-06T16:29:29.680Z,24.30
2022-10-06T16:32:31.259Z,24.20
2022-10-06T16:35:32.695Z,24.20
2022-10-06T16:38:34.194Z,24.30
2022-10-06T16:41:36.337Z,24.20
2022-10-06T16:44:37.738Z,24.00
2022-10-06T16:47:39.309Z,24.20
2022-10-06T16:50:40.699Z,24.20
2022-10-06T16:53:44.050Z,24.30
2022-10-06T16:56:51.081Z,24.20
2022-10-06T16:59:52.653Z,24.20
2022-10-06T17:02:54.175Z,24.50
2022-10-06T17:06:00.855Z,24.40
2022-10-06T17:09:02.323Z,24.10
2022-10-06T17:12:04.809Z,24.30
2022-10-06T17:15:06.945Z,24.30
2022-10-06T17:18:08.401Z,24.30
2022-10-06T17:21:32.199Z,24.50
2022-10-06T17:24:32.042Z,24.40
2022-10-06T17:27:37.227Z,24.20
2022-10-06T17:30:51.507Z,24.30
2022-10-06T17:33:53.078Z,24.00
2022-10-06T17:36:54.540Z,24.50
2022-10-06T17:39:55.940Z,24.30
2022-10-06T17:42:58.201Z,24.20
2022-10-06T17:46:03.812Z,24.10
2022-10-06T17:49:07.256Z,24.20
2022-10-06T17:52:09.066Z,24.20
2022-10-06T17:55:10.610Z,24.10
2022-10-06T17:58:16.504Z,24.30
2022-10-06T18:01:21.467Z,24.30
2022-10-06T18:04:23.482Z,24.30
2022-10-06T18:07:24.921Z,24.20
2022-10-06T18:10:37.185Z,24.20
2022-10-06T18:13:39.344Z,24.30
2022-10-06T18:16:42.544Z,24.20
2022-10-06T18:19:44.106Z,24.20
2022-10-06T18:22:45.566Z,24.30
2022-10-06T18:25:46.978Z,24.20
2022-10-06T18:28:52.849Z,24.10
2022-10-06T18:31:55.521Z,24.00
2022-10-06T18:36:12.109Z,24.20
2022-10-06T18:38:21.865Z,24.20
2022-10-06T18:41:24.324Z,24.20
2022-10-06T18:44:40.956Z,23.90
2022-10-06T18:47:57.037Z,23.90
2022-10-06T18:50:59.998Z,23.90
2022-10-06T18:54:04.740Z,23.90
2022-10-06T18:57:06.221Z,24.00
2022-10-06T19:00:10.115Z,24.10
2022-10-06T19:03:11.610Z,24.00
2022-10-06T19:06:13.185Z,24.00
2022-10-06T19:09:16.709Z,23.80
2022-10-06T19:12:18.237Z,23.30
2022-10-06T19:15:21.434Z,24.00
2022-10-06T19:18:23.010Z,24.00
2022-10-06T19:21:24.550Z,24.00
2022-10-06T19:24:26.954Z,23.50
2022-10-06T19:27:32.509Z,23.50
2022-10-06T19:30:34.654Z,23.80
2022-10-06T19:33:37.160Z,23.60
2022-10-06T19:36:40.238Z,23.70
2022-10-06T19:39:43.513Z,23.70
2022-10-06T19:42:47.924Z,24.00
2022-10-06T19:45:56.673Z,23.50
2022-10-06T19:48:58.202Z,23.60
2022-10-06T19:51:59.703Z,23.60
2022-10-06T19:55:02.184Z,24.30
2022-10-06T19:58:03.828Z,23.70
2022-10-06T20:01:06.240Z,23.90
2022-10-06T20:04:08.188Z,23.80
2022-10-06T20:07:09.734Z,23.50
2022-10-06T20:10:12.344Z,23.60
2022-10-06T20:13:14.332Z,23.60
2022-10-06T20:16:18.047Z,23.60
2022-10-06T20:19:19.924Z,23.20
2022-10-06T20:22:21.447Z,23.80
2022-10-06T20:25:23.216Z,23.30
2022-10-06T20:28:24.779Z,24.00
2022-10-06T20:31:29.889Z,23.70
2022-10-06T20:34:32.039Z,23.60
2022-10-06T20:37:33.981Z,23.50
2022-10-06T20:40:42.409Z,23.80
2022-10-06T20:43:44.025Z,23.30
2022-10-06T20:46:46.511Z,23.10
2022-10-06T20:49:53.476Z,23.30
2022-10-06T20:52:56.599Z,23.40
2022-10-06T20:55:59.390Z,23.30
2022-10-06T20:59:00.981Z,23.60
2022-10-06T21:02:03.826Z,23.60
2022-10-06T21:05:06.401Z,23.10
2022-10-06T21:08:07.874Z,23.20
2022-10-06T21:11:10.723Z,23.00
2022-10-06T21:14:12.886Z,23.30
2022-10-06T21:17:14.854Z,23.40
2022-10-06T21:20:16.246Z,23.20
2022-10-06T21:23:17.479Z,23.40
2022-10-06T21:26:20.889Z,23.10
2022-10-06T21:29:22.461Z,23.00
2022-10-06T21:32:25.204Z,23.20
2022-10-06T21:35:26.763Z,23.50
2022-10-06T21:38:29.084Z,23.70
2022-10-06T21:41:36.256Z,23.30
2022-10-06T21:44:37.767Z,23.30
2022-10-06T21:47:39.796Z,23.00
2022-10-06T21:50:41.219Z,22.80
2022-10-06T21:53:42.430Z,23.20
2022-10-06T21:56:44.201Z,23.30
2022-10-06T21:59:46.712Z,22.90
2022-10-06T22:02:48.821Z,22.70
2022-10-06T22:05:50.564Z,23.00
2022-10-06T22:08:52.207Z,22.70
2022-10-06T22:11:53.578Z,22.90
2022-10-06T22:14:57.927Z,22.60
2022-10-06T22:17:59.850Z,22.80
2022-10-06T22:21:09.094Z,23.10
2022-10-06T22:24:12.732Z,23.10
2022-10-06T22:27:14.144Z,23.10
2022-10-06T22:30:15.424Z,23.10
2022-10-06T22:33:20.567Z,23.10
2022-10-06T22:36:22.448Z,22.70
2022-10-06T22:39:26.998Z,23.10
2022-10-06T22:42:28.359Z,22.70
2022-10-06T22:45:29.610Z,22.80
2022-10-06T22:48:31.813Z,22.90
2022-10-06T22:51:33.504Z,22.70
2022-10-06T22:54:35.024Z,22.50
2022-10-06T22:57:36.547Z,22.70
2022-10-06T23:00:38.739Z,23.20
2022-10-06T23:03:41.157Z,22.80
2022-10-06T23:06:42.542Z,22.70
2022-10-06T23:09:43.900Z,22.80
2022-10-06T23:12:46.472Z,22.80
2022-10-06T23:15:47.895Z,22.70
2022-10-06T23:18:49.948Z,22.90
2022-10-06T23:21:51.370Z,23.00
2022-10-06T23:24:52.816Z,22.60
2022-10-06T23:27:54.341Z,23.10
2022-10-06T23:30:55.851Z,23.00
2022-10-06T23:33:58.282Z,22.50
2022-10-06T23:36:59.691Z,22.40
2022-10-06T23:40:01.091Z,22.70
2022-10-06T23:43:02.503Z,23.00
2022-10-06T23:46:04.159Z,22.70
2022-10-06T23:49:06.287Z,22.80
2022-10-06T23:52:07.747Z,22.70
2022-10-06T23:55:09.090Z,22.70
2022-10-06T23:58:10.780Z,23.00
